Onaway, MI (49765)

3:14 AM EDT on October 31, 2014 (GMT -0400)
Rainy River | Change Station
CLOSE
Current Station
Personal Weather Station
Location: Onaway, MI
Elevation: 673 ft
Nearby Weather Stations

Elev 673 ft 45.43 °N, 84.20 °W | Updated 4 minutes ago

Mostly Cloudy
Mostly Cloudy
39.6 °F
Feels Like 40 °F
N
0.0
Wind Variable Wind from NW

Today
High -- | Low -- °F
--% Chance of Precip.
Yesterday
High -- | Low -- °F
Precip. -- in
8:14 AM 6:25 PM
First Quarter, 52% visible
Pressure 29.90 in
Visibility 10.0 miles
Clouds Scattered Clouds 2800 ft
Mostly Cloudy 4000 ft
Overcast 6500 ft
Windchill 40 °F
Dew Point 39 °F
Humidity 96%
Rainfall 0.09 in
Snow Depth Not available.
UV 0 out of 12
Pollen .10 out of 12
Air Quality Not available.
Flu Activity Not available.
METAR KPZQ 310645Z AUTO 26004KT 10SM SCT028 BKN040 OVC065 04/04 A2990 RMK AO2

More Conditions Fewer Conditions

Pressure 29.90 in
Visibility 10.0 miles
Clouds Scattered Clouds 2800 ft
Mostly Cloudy 4000 ft
Overcast 6500 ft
Windchill 40 °F
Dew Point 39 °F
Humidity 96%
Rainfall 0.09 in
Snow Depth Not available.
UV 0 out of 12
Pollen .10 out of 12
Air Quality Not available.
Flu Activity Not available.
METAR KPZQ 310645Z AUTO 26004KT 10SM SCT028 BKN040 OVC065 04/04 A2990 RMK AO2

More Conditions Fewer Conditions

Nowcast | as of 3:00 am EDT on October 31, 2014

At 4 am...rain. Temperature 40. North winds 11 mph. At 6 am...rain. Temperature 36. North winds 17 mph. At 8 am...rain and snow. Temperature 35. North winds 23 mph with gusts to 40 mph. At 10 am...snow and rain. Temperature 34. North winds 27 mph with gusts to 40 mph.

×

10-Day Weather Forecast

Almanac

Astronomy

Oct. 31, 2014 Rise Set
Actual Time
Civil Twilight
Nautical Twilight
Astronomical Twilight
Moon
Length of Visible Light
Length of Day
Tomorrow will be .
, % of the Moon is Illuminated

Today's Extremes

State Highs State Lows

Community

WunderPhotos

Upload Photos

1,766,571 photos uploaded!

WunderBlogs® & News

Nearby

Air Quality

  Air Quality AQ Index Pollutant
Not available.

Snow Depth

Station Depth Elevation

Earthquake Activity

City Distance Mag. Time & Date
Minimum magnitude displayed is 2.5.

Coastal Water Temperatures

Place Temperature

Nearby Weather Stations